Weather History for Dubois Muni, Dubois, WY, WY

Change the Weather History Date:

Friday, May 16, 2014

  Actual Average (KJAC) Record (KJAC)
Temperature  
Mean Temperature 50 °F -  
Max Temperature 60 °F 62 °F 75 °F (1964)
Min Temperature 39 °F 30 °F 23 °F (1990)
Degree Days  
Heating Degree Days 16    
Moisture  
Dew Point 30 °F    
Average Humidity 52    
Maximum Humidity 76    
Minimum Humidity 29    
Precipitation  
Precipitation 0.00 in - - ()
Sea Level Pressure  
Sea Level Pressure 30.14 in    
Wind  
Wind Speed 12 mph (NW)    
Max Wind Speed 22 mph    
Max Gust Speed 29 mph    
Visibility 10 miles    
Events      
Averages and records for this station are not official NWS values.
T = Trace of Precipitation, MM = Missing Value Source: NWS Daily Summary

Daily Weather History Graph

Daily Weather History Graph

Search for Another Location

Airport:

Trip Planner

Search our weather history database for the weather conditions in past years. The results will help you decide how hot, cold, wet, or windy it might be!

Date:

Astronomy

May. 16, 2014 Rise Set
Actual Time 5:52 AM MDT 8:38 PM MDT
Civil Twilight 5:19 AM MDT 9:11 PM MDT
Nautical Twilight 4:37 AM MDT 9:53 PM MDT
Astronomical Twilight 3:49 AM MDT 10:41 PM MDT
Moon 10:47 PM MDT (5/16) 7:37 AM MDT (5/16)
Length of Visible Light 15h 51m
Length of Day
14h 45m
Waning Gibbous, 95% of the Moon is Illuminated
May 16
Waning Gibbous
May 21
Last Quarter
May 28
New
Jun 5
First Quarter
Jun 12
Full

Hourly Weather History & Observations

Time (MDT) Temp. Windchill Dew Point Humidity Pressure Visibility Wind Dir Wind Speed Gust Speed Precip Events Conditions
12:15 AM 51.8 °F - 23.0 °F 33% 30.15 in 10.0 mi WNW 21.9 mph 28.8 mph N/A   Clear
12:35 AM 50.0 °F - 24.8 °F 37% 30.15 in 10.0 mi NW 16.1 mph 23.0 mph N/A   Clear
12:55 AM 46.4 °F 38.7 °F 26.6 °F 46% 30.14 in 10.0 mi NNW 20.7 mph 26.5 mph N/A   Clear
1:15 AM 44.6 °F 37.4 °F 26.6 °F 49% 30.14 in 10.0 mi NW 16.1 mph 23.0 mph N/A   Clear
1:35 AM 44.6 °F 37.2 °F 26.6 °F 49% 30.13 in 10.0 mi NW 17.3 mph - N/A   Clear
1:55 AM 42.8 °F 34.5 °F 26.6 °F 53% 30.13 in 10.0 mi NW 18.4 mph - N/A   Clear
2:15 AM 44.6 °F 36.9 °F 24.8 °F 46% 30.13 in 10.0 mi NW 18.4 mph 23.0 mph N/A   Clear
2:35 AM 44.6 °F 37.4 °F 24.8 °F 46% 30.13 in 10.0 mi NNW 16.1 mph 24.2 mph N/A   Clear
2:55 AM 42.8 °F 34.8 °F 26.6 °F 53% 30.13 in 10.0 mi NW 17.3 mph - N/A   Clear
3:15 AM 42.8 °F 36.2 °F 26.6 °F 53% 30.13 in 10.0 mi NW 12.7 mph - N/A   Clear
3:35 AM 42.8 °F 36.6 °F 26.6 °F 53% 30.12 in 10.0 mi WNW 11.5 mph - N/A   Clear
3:55 AM 42.8 °F 37.0 °F 26.6 °F 53% 30.12 in 10.0 mi NW 10.4 mph - N/A   Clear
4:15 AM 41.0 °F 39.0 °F 26.6 °F 57% 30.13 in 10.0 mi North 3.5 mph - N/A   Clear
4:35 AM 42.8 °F 37.0 °F 26.6 °F 53% 30.13 in 10.0 mi NW 10.4 mph - N/A   Clear
4:55 AM 42.8 °F 38.0 °F 26.6 °F 53% 30.12 in 10.0 mi WNW 8.1 mph - N/A   Clear
5:15 AM 41.0 °F 35.8 °F 26.6 °F 57% 30.12 in 10.0 mi WNW 8.1 mph - N/A   Clear
5:35 AM 39.2 °F 35.0 °F 26.6 °F 61% 30.12 in 10.0 mi NW 5.8 mph - N/A   Clear
5:55 AM 39.2 °F 34.2 °F 26.6 °F 61% 30.12 in 10.0 mi NNW 6.9 mph - N/A   Clear
6:15 AM 41.0 °F - 26.6 °F 57% 30.13 in 10.0 mi Calm Calm - N/A   Clear
6:35 AM 41.0 °F 34.3 °F 26.6 °F 57% 30.14 in 10.0 mi NNW 11.5 mph - N/A   Clear
6:55 AM 41.0 °F - 26.6 °F 57% 30.15 in 10.0 mi Calm Calm - N/A   Clear
7:15 AM 41.0 °F - 28.4 °F 61% 30.16 in 10.0 mi Calm Calm - N/A   Clear
7:35 AM 44.6 °F - 28.4 °F 53% 30.15 in 10.0 mi Calm Calm - N/A   Clear
7:55 AM 42.8 °F 38.0 °F 28.4 °F 57% 30.16 in 10.0 mi SE 8.1 mph - N/A   Scattered Clouds
8:15 AM 44.6 °F 39.2 °F 32.0 °F 61% 30.17 in 10.0 mi South 10.4 mph - N/A   Mostly Cloudy
8:35 AM 44.6 °F 39.7 °F 32.0 °F 61% 30.19 in 10.0 mi SSE 9.2 mph - N/A   Overcast
8:55 AM 44.6 °F 38.4 °F 32.0 °F 61% 30.20 in 10.0 mi South 12.7 mph - N/A   Overcast
9:15 AM 44.6 °F 38.8 °F 33.8 °F 66% 30.20 in 10.0 mi SSE 11.5 mph - N/A   Scattered Clouds
9:35 AM 46.4 °F 40.4 °F 33.8 °F 62% 30.20 in 10.0 mi SSE 13.8 mph - N/A   Scattered Clouds
9:55 AM 46.4 °F 42.4 °F 32.0 °F 57% 30.20 in 10.0 mi SSE 8.1 mph - N/A   Mostly Cloudy
10:15 AM 50.0 °F - 32.0 °F 50% 30.19 in 10.0 mi SSE 10.4 mph - N/A   Overcast
10:35 AM 50.0 °F - 32.0 °F 50% 30.18 in 10.0 mi ESE 3.5 mph - N/A   Overcast
10:55 AM 51.8 °F - 32.0 °F 47% 30.19 in 10.0 mi Calm Calm - N/A   Overcast
11:15 AM 51.8 °F - 32.0 °F 47% 30.17 in 10.0 mi SE 4.6 mph - N/A   Overcast
11:35 AM 53.6 °F - 32.0 °F 44% 30.16 in 10.0 mi SE 5.8 mph - N/A   Overcast
11:55 AM 53.6 °F - 30.2 °F 41% 30.16 in 10.0 mi Calm Calm - N/A   Overcast
12:10 PM 55.4 °F - 28.4 °F 36% 30.16 in 10.0 mi NW 11.5 mph 17.3 mph N/A   Overcast
12:35 PM 59.0 °F - 28.4 °F 31% 30.15 in 10.0 mi North 11.5 mph - N/A   Mostly Cloudy
12:55 PM 55.4 °F - 28.4 °F 36% 30.15 in 10.0 mi NW 8.1 mph - N/A   Overcast
1:15 PM 59.0 °F - 28.4 °F 31% 30.14 in 10.0 mi NNW 8.1 mph - N/A   Mostly Cloudy
1:35 PM 59.0 °F - 26.6 °F 29% 30.13 in 10.0 mi NNE 9.2 mph 19.6 mph N/A   Scattered Clouds
2:15 PM 59.0 °F - 32.0 °F 36% 30.13 in 10.0 mi ENE 4.6 mph - N/A   Mostly Cloudy
2:35 PM 59.0 °F - 30.2 °F 34% 30.13 in 10.0 mi ENE 4.6 mph - N/A   Mostly Cloudy
2:55 PM 60.8 °F - 28.4 °F 29% 30.13 in 10.0 mi NE 5.8 mph - N/A   Scattered Clouds
3:15 PM 60.8 °F - 28.4 °F 29% 30.12 in 10.0 mi NE 5.8 mph - N/A   Scattered Clouds
3:35 PM 59.0 °F - 32.0 °F 36% 30.11 in 10.0 mi SSE 3.5 mph - N/A   Scattered Clouds
3:55 PM 59.0 °F - 32.0 °F 36% 30.11 in 10.0 mi East 6.9 mph - N/A   Mostly Cloudy
4:15 PM 55.4 °F - 33.8 °F 44% 30.10 in 10.0 mi SE 13.8 mph 19.6 mph N/A   Overcast
4:35 PM 55.4 °F - 33.8 °F 44% 30.11 in 10.0 mi SE 13.8 mph 20.7 mph N/A   Overcast
4:55 PM 53.6 °F - 33.8 °F 47% 30.11 in 10.0 mi SE 16.1 mph 21.9 mph N/A   Overcast
5:15 PM 53.6 °F - 33.8 °F 47% 30.10 in 10.0 mi SE 15.0 mph 20.7 mph N/A   Mostly Cloudy
5:35 PM 53.6 °F - 33.8 °F 47% 30.10 in 10.0 mi SE 12.7 mph 21.9 mph N/A   Mostly Cloudy
5:55 PM 51.8 °F - 33.8 °F 50% 30.12 in 10.0 mi SSE 6.9 mph - N/A   Overcast
6:15 PM 51.8 °F - 32.0 °F 47% 30.10 in 10.0 mi NW 5.8 mph - N/A   Overcast
6:35 PM 51.8 °F - 32.0 °F 47% 30.09 in 10.0 mi West 18.4 mph - N/A   Mostly Cloudy
6:55 PM 51.8 °F - 32.0 °F 47% 30.10 in 10.0 mi West 16.1 mph - N/A   Scattered Clouds
7:15 PM 51.8 °F - 32.0 °F 47% 30.11 in 10.0 mi NW 9.2 mph - N/A   Scattered Clouds
7:35 PM 50.0 °F - 32.0 °F 50% 30.12 in 10.0 mi NW 11.5 mph 18.4 mph N/A   Mostly Cloudy
7:55 PM 48.2 °F - 32.0 °F 54% 30.12 in 10.0 mi WNW 18.4 mph 25.3 mph N/A   Overcast
8:10 PM 48.2 °F - 32.0 °F 54% 30.14 in 10.0 mi NW 15.0 mph 28.8 mph N/A   Overcast
8:35 PM 46.4 °F 39.0 °F 32.0 °F 57% 30.14 in 10.0 mi WNW 19.6 mph 24.2 mph N/A   Light Drizzle
8:55 PM 44.6 °F 37.2 °F 33.8 °F 66% 30.12 in 10.0 mi WSW 17.3 mph 25.3 mph N/A   Overcast
9:15 PM 44.6 °F 42.2 °F 33.8 °F 66% 30.11 in 10.0 mi West 4.6 mph - N/A   Overcast
9:35 PM 42.8 °F 38.6 °F 33.8 °F 70% 30.12 in 10.0 mi NW 6.9 mph - N/A   Scattered Clouds
9:55 PM 42.8 °F 38.0 °F 33.8 °F 70% 30.12 in 10.0 mi WNW 8.1 mph - N/A   Clear
10:15 PM 42.8 °F 38.0 °F 33.8 °F 70% 30.12 in 10.0 mi NW 8.1 mph - N/A   Scattered Clouds
10:35 PM 41.0 °F 36.4 °F 33.8 °F 76% 30.12 in 10.0 mi NW 6.9 mph - N/A   Scattered Clouds
10:55 PM 41.0 °F 38.0 °F 33.8 °F 76% 30.12 in 10.0 mi West 4.6 mph - N/A   Mostly Cloudy
11:15 PM 41.0 °F - 33.8 °F 76% 30.10 in 10.0 mi Calm Calm - N/A   Overcast
11:35 PM 41.0 °F 36.4 °F 33.8 °F 76% 30.11 in 10.0 mi WNW 6.9 mph - N/A   Overcast
11:55 PM 41.0 °F 37.1 °F 33.8 °F 76% 30.11 in 10.0 mi West 5.8 mph - N/A   Overcast